Time;durP1;ratioP1;P1;durP2;ratioP2;P2;SDS_P1;SDS_P2;PMS_P1;PMS_P2;Temp;Humidity;BMP_temperature;BMP_pressure;BME280_temperature;BME280_humidity;BME280_pressure;Samples;Min_cycle;Max_cycle;Signal;HPM_P1;HPM_P2
2023/08/10 00:00:39;;;;;;;4.70;3.43;;;;;;;;;;5070820;28;20066;-62
2023/08/10 00:03:04;;;;;;;4.32;3.10;;;;;;;;;;5068440;28;20047;-62
2023/08/10 00:05:31;;;;;;;4.13;3.00;;;;;;;;;;5070604;28;20021;-63
2023/08/10 00:07:56;;;;;;;7.90;3.67;;;;;;;;;;5069282;28;20081;-64
2023/08/10 00:10:21;;;;;;;4.33;2.80;;;;;;;;;;5068928;28;20024;-64
2023/08/10 00:12:47;;;;;;;5.95;2.75;;;;;;;;;;5068841;28;20052;-64
2023/08/10 00:15:12;;;;;;;5.83;3.93;;;;;;;;;;5070527;28;20021;-64
2023/08/10 00:17:37;;;;;;;4.83;3.70;;;;;;;;;;5068524;28;20463;-64
2023/08/10 00:20:10;;;;;;;7.10;3.10;;;;;;;;;;5070483;28;20040;-64
2023/08/10 00:22:35;;;;;;;10.90;5.25;;;;;;;;;;5068943;28;20482;-64
2023/08/10 00:25:00;;;;;;;11.88;4.65;;;;;;;;;;5070365;28;20024;-63
2023/08/10 00:27:25;;;;;;;6.97;2.63;;;;;;;;;;5068866;28;20033;-63
2023/08/10 00:29:51;;;;;;;4.35;3.50;;;;;;;;;;5070626;28;20078;-63
2023/08/10 00:32:16;;;;;;;5.13;3.63;;;;;;;;;;5070720;28;20040;-63
2023/08/10 00:34:42;;;;;;;4.77;3.03;;;;;;;;;;5074061;28;20043;-63
2023/08/10 00:37:07;;;;;;;3.00;2.78;;;;;;;;;;5073335;28;20029;-63
2023/08/10 00:39:32;;;;;;;5.68;2.95;;;;;;;;;;5073949;28;20023;-63
2023/08/10 00:41:57;;;;;;;7.53;3.60;;;;;;;;;;5072404;28;20043;-64
2023/08/10 00:44:22;;;;;;;4.97;2.90;;;;;;;;;;5074149;28;20025;-64
2023/08/10 00:46:49;;;;;;;5.25;3.50;;;;;;;;;;5071989;28;20036;-64
2023/08/10 00:49:14;;;;;;;3.42;2.88;;;;;;;;;;5073981;28;20118;-64
2023/08/10 00:51:39;;;;;;;7.57;3.70;;;;;;;;;;5072785;28;20391;-64
2023/08/10 00:54:05;;;;;;;9.37;3.83;;;;;;;;;;5073807;28;20025;-64
2023/08/10 00:56:30;;;;;;;5.57;3.78;;;;;;;;;;5072382;28;20431;-66
2023/08/10 00:58:56;;;;;;;12.05;4.97;;;;;;;;;;5072957;28;20413;-62
2023/08/10 01:01:21;;;;;;;10.47;5.10;;;;;;;;;;5072048;28;20131;-62
2023/08/10 01:03:46;;;;;;;8.75;3.33;;;;;;;;;;5073395;28;20455;-63
2023/08/10 01:06:18;;;;;;;4.13;2.60;;;;;;;;;;5072345;28;20040;-63
2023/08/10 01:08:46;;;;;;;5.47;2.58;;;;;;;;;;5073455;28;20576;-62
2023/08/10 01:11:24;;;;;;;7.88;3.47;;;;;;;;;;5072160;28;20047;-63
2023/08/10 01:13:58;;;;;;;3.67;2.93;;;;;;;;;;5073932;28;20472;-62
2023/08/10 01:16:25;;;;;;;7.85;4.68;;;;;;;;;;5071131;28;20457;-63
2023/08/10 01:18:50;;;;;;;20.95;5.90;;;;;;;;;;5073418;28;20051;-62
2023/08/10 01:21:23;;;;;;;7.65;3.40;;;;;;;;;;5072287;28;20036;-61
2023/08/10 01:23:52;;;;;;;13.75;4.07;;;;;;;;;;5072742;28;20487;-63
2023/08/10 01:26:18;;;;;;;5.53;3.10;;;;;;;;;;5071838;28;20043;-63
2023/08/10 01:28:43;;;;;;;11.93;4.85;;;;;;;;;;5073787;28;20414;-63
2023/08/10 01:31:09;;;;;;;9.87;3.80;;;;;;;;;;5070998;28;20470;-63
2023/08/10 01:33:34;;;;;;;7.57;4.30;;;;;;;;;;5073370;28;20051;-64
2023/08/10 01:35:59;;;;;;;8.23;3.78;;;;;;;;;;5071741;28;20039;-63
2023/08/10 01:38:24;;;;;;;11.57;3.77;;;;;;;;;;5072777;28;20062;-64
2023/08/10 01:40:51;;;;;;;9.75;4.13;;;;;;;;;;5072002;28;20099;-63
2023/08/10 01:43:16;;;;;;;9.38;4.35;;;;;;;;;;5072143;28;20012;-63
2023/08/10 01:45:43;;;;;;;8.35;3.92;;;;;;;;;;5071422;28;20524;-63
2023/08/10 01:48:12;;;;;;;6.38;3.90;;;;;;;;;;5073254;28;20017;-63
2023/08/10 01:50:40;;;;;;;5.15;4.75;;;;;;;;;;5073183;28;20040;-64
2023/08/10 01:53:06;;;;;;;7.95;3.20;;;;;;;;;;5071199;28;20112;-64
2023/08/10 01:55:31;;;;;;;10.73;5.65;;;;;;;;;;5072891;28;20025;-64
2023/08/10 01:57:57;;;;;;;9.07;5.47;;;;;;;;;;5090776;28;20039;-63
2023/08/10 02:00:22;;;;;;;4.47;3.83;;;;;;;;;;5092441;28;20085;-63
2023/08/10 02:02:47;;;;;;;9.10;4.97;;;;;;;;;;5072124;28;20040;-62
2023/08/10 02:05:13;;;;;;;11.50;5.43;;;;;;;;;;5072567;28;20082;-63
2023/08/10 02:07:38;;;;;;;7.18;5.18;;;;;;;;;;5070956;28;20450;-62
2023/08/10 02:10:03;;;;;;;8.05;4.97;;;;;;;;;;5072806;28;20523;-62
2023/08/10 02:12:29;;;;;;;8.05;4.57;;;;;;;;;;5070648;28;20051;-62
2023/08/10 02:14:58;;;;;;;7.47;4.65;;;;;;;;;;5072096;28;20079;-64
2023/08/10 02:17:23;;;;;;;9.75;4.70;;;;;;;;;;5070921;28;20041;-63
2023/08/10 02:19:48;;;;;;;10.77;4.77;;;;;;;;;;5072643;28;20575;-62
2023/08/10 02:22:13;;;;;;;13.25;4.78;;;;;;;;;;5070599;28;20051;-63
2023/08/10 02:24:38;;;;;;;11.65;4.75;;;;;;;;;;5072164;28;20029;-63
2023/08/10 02:27:04;;;;;;;12.63;5.13;;;;;;;;;;5071249;28;20036;-62
2023/08/10 02:29:29;;;;;;;6.97;4.25;;;;;;;;;;5072303;28;21062;-62
2023/08/10 02:31:55;;;;;;;10.13;4.77;;;;;;;;;;5070547;28;20119;-63
2023/08/10 02:34:20;;;;;;;12.23;5.47;;;;;;;;;;5072204;28;20460;-63
2023/08/10 02:36:45;;;;;;;8.25;4.65;;;;;;;;;;5070980;28;20060;-63
2023/08/10 02:39:10;;;;;;;9.77;4.43;;;;;;;;;;5071662;28;20017;-63
2023/08/10 02:41:35;;;;;;;6.33;3.80;;;;;;;;;;5070925;28;20431;-63
2023/08/10 02:44:00;;;;;;;6.00;5.37;;;;;;;;;;5071477;28;20459;-63
2023/08/10 02:46:26;;;;;;;7.65;5.18;;;;;;;;;;5069905;28;20085;-63
2023/08/10 02:48:52;;;;;;;13.37;5.70;;;;;;;;;;5072101;28;20020;-63
2023/08/10 02:51:17;;;;;;;6.63;4.60;;;;;;;;;;5070211;28;20462;-63
2023/08/10 02:53:44;;;;;;;7.73;5.57;;;;;;;;;;5070645;28;20467;-63
2023/08/10 02:56:09;;;;;;;7.13;6.32;;;;;;;;;;5070146;28;20638;-63
2023/08/10 02:58:34;;;;;;;7.30;4.70;;;;;;;;;;5071768;28;20021;-63
2023/08/10 03:00:59;;;;;;;12.35;4.97;;;;;;;;;;5069846;28;20451;-63
2023/08/10 03:03:25;;;;;;;8.00;5.40;;;;;;;;;;5069922;28;20058;-63
2023/08/10 03:05:51;;;;;;;13.60;4.80;;;;;;;;;;5070235;28;20395;-63
2023/08/10 03:08:16;;;;;;;5.53;4.87;;;;;;;;;;5071073;28;20016;-63
2023/08/10 03:10:41;;;;;;;10.53;5.63;;;;;;;;;;5070260;28;20012;-63
2023/08/10 03:13:07;;;;;;;8.63;4.63;;;;;;;;;;5071385;28;20763;-64
2023/08/10 03:15:32;;;;;;;10.57;5.15;;;;;;;;;;5070779;28;20028;-62
2023/08/10 03:17:57;;;;;;;7.57;4.70;;;;;;;;;;5070080;28;20036;-62
2023/08/10 03:20:22;;;;;;;8.00;4.95;;;;;;;;;;5070878;28;20496;-62
2023/08/10 03:22:47;;;;;;;7.00;4.67;;;;;;;;;;5069571;28;20043;-62
2023/08/10 03:25:14;;;;;;;6.65;4.63;;;;;;;;;;5070745;28;20459;-62
2023/08/10 03:27:39;;;;;;;10.27;5.05;;;;;;;;;;5069576;28;20496;-62
2023/08/10 03:30:06;;;;;;;8.07;5.53;;;;;;;;;;5071061;28;20017;-63
2023/08/10 03:32:31;;;;;;;10.52;5.32;;;;;;;;;;5068171;28;20442;-63
2023/08/10 03:34:56;;;;;;;6.63;5.70;;;;;;;;;;5071250;28;20024;-63
2023/08/10 03:37:21;;;;;;;8.33;6.13;;;;;;;;;;5067729;28;20060;-63
2023/08/10 03:39:46;;;;;;;6.22;4.50;;;;;;;;;;5070864;28;20518;-63
2023/08/10 03:42:11;;;;;;;6.97;6.00;;;;;;;;;;5069310;28;20044;-63
2023/08/10 03:44:37;;;;;;;10.90;4.50;;;;;;;;;;5070358;28;20028;-63
2023/08/10 03:47:02;;;;;;;12.77;6.93;;;;;;;;;;5069520;28;20032;-63
2023/08/10 03:49:27;;;;;;;10.73;4.90;;;;;;;;;;5070806;28;20027;-63
2023/08/10 03:51:52;;;;;;;7.38;4.80;;;;;;;;;;5068919;28;20119;-65
2023/08/10 03:54:17;;;;;;;4.45;3.92;;;;;;;;;;5070692;28;20028;-65
2023/08/10 03:56:43;;;;;;;4.13;3.55;;;;;;;;;;5069475;28;20037;-65
2023/08/10 03:59:08;;;;;;;5.47;3.22;;;;;;;;;;5070565;28;20533;-64
2023/08/10 04:01:33;;;;;;;5.45;3.42;;;;;;;;;;5069139;28;20048;-65
2023/08/10 04:03:59;;;;;;;4.63;4.05;;;;;;;;;;5070759;28;20074;-64
2023/08/10 04:06:24;;;;;;;4.85;4.45;;;;;;;;;;5068043;28;20062;-65
2023/08/10 04:08:49;;;;;;;10.47;4.67;;;;;;;;;;5071016;28;20070;-65
2023/08/10 04:11:15;;;;;;;5.93;5.03;;;;;;;;;;5068743;28;20432;-65
2023/08/10 04:13:40;;;;;;;6.97;5.13;;;;;;;;;;5070524;28;20031;-65
2023/08/10 04:16:05;;;;;;;5.32;4.15;;;;;;;;;;5069534;28;20399;-66
2023/08/10 04:18:31;;;;;;;10.70;5.90;;;;;;;;;;5070181;28;20063;-63
2023/08/10 04:20:56;;;;;;;7.73;4.63;;;;;;;;;;5068086;28;20036;-61
2023/08/10 04:23:21;;;;;;;6.13;4.35;;;;;;;;;;5070377;28;20024;-61
2023/08/10 04:25:47;;;;;;;9.82;4.97;;;;;;;;;;5068907;28;20425;-61
2023/08/10 04:28:12;;;;;;;10.77;5.07;;;;;;;;;;5069936;28;20025;-61
2023/08/10 04:30:38;;;;;;;7.03;5.10;;;;;;;;;;5070290;28;20101;-61
2023/08/10 04:33:03;;;;;;;8.70;5.75;;;;;;;;;;5067937;28;20107;-65
2023/08/10 04:35:28;;;;;;;7.18;4.80;;;;;;;;;;5069532;28;20285;-60
2023/08/10 04:37:54;;;;;;;9.70;5.50;;;;;;;;;;5067952;28;20036;-60
2023/08/10 04:40:19;;;;;;;7.50;4.73;;;;;;;;;;5069598;28;20446;-60
2023/08/10 04:42:44;;;;;;;8.93;4.72;;;;;;;;;;5068917;28;20368;-60
2023/08/10 04:45:09;;;;;;;7.70;4.37;;;;;;;;;;5068652;28;20074;-60
2023/08/10 04:47:35;;;;;;;8.37;4.60;;;;;;;;;;5067545;28;20033;-60
2023/08/10 04:50:00;;;;;;;7.53;4.07;;;;;;;;;;5070064;28;20021;-60
2023/08/10 04:52:25;;;;;;;4.20;3.80;;;;;;;;;;5068159;28;20032;-59
2023/08/10 04:54:50;;;;;;;6.53;4.82;;;;;;;;;;5068888;28;20455;-60
2023/08/10 04:57:16;;;;;;;7.07;5.20;;;;;;;;;;5066167;28;20059;-59
2023/08/10 04:59:41;;;;;;;9.10;4.70;;;;;;;;;;5056649;28;20435;-59
2023/08/10 05:02:06;;;;;;;5.72;4.78;;;;;;;;;;5056617;28;20044;-59
2023/08/10 05:04:31;;;;;;;10.07;5.00;;;;;;;;;;5055886;28;20475;-59
2023/08/10 05:06:56;;;;;;;24.08;6.97;;;;;;;;;;5055771;28;20365;-59
2023/08/10 05:09:21;;;;;;;8.25;6.15;;;;;;;;;;5058366;28;20061;-59
2023/08/10 05:11:47;;;;;;;12.23;5.47;;;;;;;;;;5055788;28;20115;-60
2023/08/10 05:14:12;;;;;;;9.50;5.82;;;;;;;;;;5054305;28;20028;-60
2023/08/10 05:16:37;;;;;;;9.75;5.25;;;;;;;;;;5059928;28;20037;-59
2023/08/10 05:19:02;;;;;;;15.30;7.37;;;;;;;;;;5061515;28;20483;-59
2023/08/10 05:21:27;;;;;;;14.30;7.70;;;;;;;;;;5058008;28;21079;-59
2023/08/10 05:23:53;;;;;;;15.20;6.40;;;;;;;;;;5064088;28;20441;-59
2023/08/10 05:26:18;;;;;;;6.83;6.17;;;;;;;;;;5061177;28;20032;-59
2023/08/10 05:28:43;;;;;;;5.83;5.17;;;;;;;;;;5061406;28;20024;-59
2023/08/10 05:31:08;;;;;;;7.47;5.95;;;;;;;;;;5067521;28;20434;-59
2023/08/10 05:33:33;;;;;;;8.07;7.27;;;;;;;;;;5092674;28;20020;-60
2023/08/10 05:35:59;;;;;;;8.63;6.10;;;;;;;;;;5087872;28;20463;-59
2023/08/10 05:38:25;;;;;;;10.00;7.77;;;;;;;;;;5072780;28;20024;-59
2023/08/10 05:40:50;;;;;;;16.52;8.35;;;;;;;;;;5070336;28;20021;-59
2023/08/10 05:43:16;;;;;;;10.87;7.50;;;;;;;;;;5071014;28;20020;-59
2023/08/10 05:45:41;;;;;;;8.47;7.40;;;;;;;;;;5071088;28;20034;-59
2023/08/10 05:48:10;;;;;;;11.52;7.78;;;;;;;;;;5071398;28;20434;-59
2023/08/10 05:50:35;;;;;;;8.32;6.68;;;;;;;;;;5070867;28;20467;-59
2023/08/10 05:53:01;;;;;;;11.17;6.90;;;;;;;;;;5071040;28;20130;-59
2023/08/10 05:55:26;;;;;;;11.75;5.97;;;;;;;;;;5072212;28;20419;-59
2023/08/10 05:57:51;;;;;;;17.90;6.53;;;;;;;;;;5069485;28;20427;-59
2023/08/10 06:00:16;;;;;;;7.43;6.55;;;;;;;;;;5072276;28;20122;-60
2023/08/10 06:02:42;;;;;;;7.88;5.50;;;;;;;;;;5070526;28;20029;-59
2023/08/10 06:05:08;;;;;;;9.95;5.50;;;;;;;;;;5070955;28;20738;-60
2023/08/10 06:07:33;;;;;;;14.90;5.85;;;;;;;;;;5070270;28;20052;-59
2023/08/10 06:09:58;;;;;;;13.80;6.72;;;;;;;;;;5067791;28;20021;-59
2023/08/10 06:12:24;;;;;;;8.13;6.53;;;;;;;;;;5069239;28;20043;-60
2023/08/10 06:14:49;;;;;;;16.52;8.27;;;;;;;;;;5070697;28;20798;-60
2023/08/10 06:17:14;;;;;;;17.70;6.47;;;;;;;;;;5068816;28;20079;-59
2023/08/10 06:19:39;;;;;;;7.70;5.22;;;;;;;;;;5070508;28;20636;-60
2023/08/10 06:22:04;;;;;;;13.77;5.37;;;;;;;;;;5069413;28;20029;-58
2023/08/10 06:24:30;;;;;;;9.30;4.53;;;;;;;;;;5071179;28;20156;-59
2023/08/10 06:26:55;;;;;;;9.90;5.55;;;;;;;;;;5070392;28;20508;-59
2023/08/10 06:29:21;;;;;;;8.52;5.65;;;;;;;;;;5071695;28;20016;-59
2023/08/10 06:31:46;;;;;;;4.63;4.22;;;;;;;;;;5069589;28;20033;-59
2023/08/10 06:34:11;;;;;;;5.68;4.40;;;;;;;;;;5071440;28;20027;-60
2023/08/10 06:36:37;;;;;;;6.63;4.75;;;;;;;;;;5070224;28;20037;-61
2023/08/10 06:39:04;;;;;;;12.03;6.87;;;;;;;;;;5071871;28;20099;-59
2023/08/10 06:41:30;;;;;;;7.35;4.93;;;;;;;;;;5069882;28;20036;-60
2023/08/10 06:43:55;;;;;;;10.10;5.35;;;;;;;;;;5071151;28;20029;-60
2023/08/10 06:46:20;;;;;;;14.50;6.57;;;;;;;;;;5069952;28;20025;-60
2023/08/10 06:48:47;;;;;;;11.60;5.72;;;;;;;;;;5070683;28;20021;-59
2023/08/10 06:51:12;;;;;;;7.25;4.88;;;;;;;;;;5069879;28;20032;-58
2023/08/10 06:53:38;;;;;;;5.63;5.13;;;;;;;;;;5071435;28;20020;-60
2023/08/10 06:56:03;;;;;;;8.93;5.50;;;;;;;;;;5068405;28;20545;-60
2023/08/10 06:58:28;;;;;;;20.00;6.47;;;;;;;;;;5070738;28;20107;-60
2023/08/10 07:00:55;;;;;;;8.30;5.10;;;;;;;;;;5069628;28;20104;-60
2023/08/10 07:03:20;;;;;;;5.35;4.85;;;;;;;;;;5070852;28;20020;-60
2023/08/10 07:05:45;;;;;;;9.37;4.47;;;;;;;;;;5068832;28;20062;-60
2023/08/10 07:08:10;;;;;;;7.57;5.73;;;;;;;;;;5070550;28;20443;-60
2023/08/10 07:10:38;;;;;;;17.93;6.43;;;;;;;;;;5062175;28;20491;-60
2023/08/10 07:13:04;;;;;;;9.55;5.88;;;;;;;;;;5069319;28;20033;-60
2023/08/10 07:15:32;;;;;;;7.43;4.45;;;;;;;;;;5071157;28;20027;-60
2023/08/10 07:17:58;;;;;;;15.35;4.90;;;;;;;;;;5069129;28;20043;-60
2023/08/10 07:20:23;;;;;;;6.35;4.00;;;;;;;;;;5069549;28;20048;-60
2023/08/10 07:22:48;;;;;;;10.48;5.45;;;;;;;;;;5086451;28;20451;-60
2023/08/10 07:25:16;;;;;;;5.03;4.07;;;;;;;;;;5090057;28;20024;-60
2023/08/10 07:27:43;;;;;;;11.10;5.80;;;;;;;;;;5071426;28;20068;-60
2023/08/10 07:30:09;;;;;;;5.93;3.67;;;;;;;;;;5069678;28;20055;-60
2023/08/10 07:32:34;;;;;;;7.97;4.82;;;;;;;;;;5067227;28;20044;-61
2023/08/10 07:34:59;;;;;;;9.33;3.97;;;;;;;;;;5069939;28;20024;-60
2023/08/10 07:37:24;;;;;;;7.23;3.57;;;;;;;;;;5068975;28;20036;-60
2023/08/10 07:39:50;;;;;;;8.30;4.80;;;;;;;;;;5070356;28;20518;-60
2023/08/10 07:42:15;;;;;;;6.55;3.15;;;;;;;;;;5068462;28;20044;-60
2023/08/10 07:44:40;;;;;;;5.83;4.00;;;;;;;;;;5070379;28;20047;-61
2023/08/10 07:47:05;;;;;;;6.67;3.80;;;;;;;;;;5069326;28;20482;-61
2023/08/10 07:49:31;;;;;;;7.00;4.50;;;;;;;;;;5070061;28;20065;-61
2023/08/10 07:51:57;;;;;;;6.43;4.15;;;;;;;;;;5068901;28;20041;-61
2023/08/10 07:54:22;;;;;;;10.37;3.67;;;;;;;;;;5070744;28;20032;-61
2023/08/10 07:56:47;;;;;;;5.38;3.15;;;;;;;;;;5068257;28;20458;-61
2023/08/10 07:59:12;;;;;;;5.70;3.30;;;;;;;;;;5070115;28;20025;-60
2023/08/10 08:01:38;;;;;;;9.20;3.60;;;;;;;;;;5069300;28;20041;-60
2023/08/10 08:04:04;;;;;;;8.63;3.03;;;;;;;;;;5070003;28;20463;-61
2023/08/10 08:06:29;;;;;;;4.90;3.50;;;;;;;;;;5068809;28;20040;-61
2023/08/10 08:08:54;;;;;;;8.48;4.03;;;;;;;;;;5070488;28;20019;-60
2023/08/10 08:11:19;;;;;;;10.53;3.10;;;;;;;;;;5068371;28;20127;-61
2023/08/10 08:13:45;;;;;;;8.73;3.30;;;;;;;;;;5070370;28;20013;-61
2023/08/10 08:16:10;;;;;;;8.90;3.67;;;;;;;;;;5068730;28;20025;-61
2023/08/10 08:18:48;;;;;;;6.38;3.03;;;;;;;;;;5069805;28;21141;-61
2023/08/10 08:21:15;;;;;;;5.45;2.60;;;;;;;;;;5068255;28;20043;-61
2023/08/10 08:23:40;;;;;;;6.30;2.97;;;;;;;;;;5068938;28;20383;-61
2023/08/10 08:26:05;;;;;;;6.00;2.55;;;;;;;;;;5068249;28;20028;-61
2023/08/10 08:28:31;;;;;;;11.10;3.50;;;;;;;;;;5070080;28;20500;-60
2023/08/10 08:30:56;;;;;;;6.80;2.60;;;;;;;;;;5068564;28;20566;-60
2023/08/10 08:33:21;;;;;;;13.10;4.27;;;;;;;;;;5067683;28;20457;-61
2023/08/10 08:35:46;;;;;;;5.78;3.33;;;;;;;;;;5069077;28;20387;-60
2023/08/10 08:38:15;;;;;;;3.80;3.22;;;;;;;;;;5069990;28;20464;-61
2023/08/10 08:40:41;;;;;;;4.15;2.40;;;;;;;;;;5066798;28;20483;-61
2023/08/10 08:43:06;;;;;;;5.40;3.35;;;;;;;;;;5055202;28;20025;-60
2023/08/10 08:45:32;;;;;;;4.18;2.90;;;;;;;;;;5051325;28;20422;-62
2023/08/10 08:47:57;;;;;;;2.80;2.17;;;;;;;;;;5067280;28;20024;-60
2023/08/10 08:50:23;;;;;;;9.60;4.15;;;;;;;;;;5069953;28;20019;-61
2023/08/10 08:52:48;;;;;;;9.88;2.90;;;;;;;;;;5070141;28;20032;-60
2023/08/10 08:55:14;;;;;;;10.60;3.07;;;;;;;;;;5073599;28;20024;-64
2023/08/10 08:57:39;;;;;;;9.15;2.72;;;;;;;;;;5072313;28;20451;-61
2023/08/10 09:00:06;;;;;;;8.27;2.93;;;;;;;;;;5073529;28;20029;-61
2023/08/10 09:02:31;;;;;;;12.27;4.60;;;;;;;;;;5071668;28;20480;-61
2023/08/10 09:04:59;;;;;;;6.97;2.43;;;;;;;;;;5073703;28;20103;-61
2023/08/10 09:07:25;;;;;;;3.63;2.95;;;;;;;;;;5071912;28;20526;-61
2023/08/10 09:09:50;;;;;;;6.60;3.00;;;;;;;;;;5073352;28;20024;-61
2023/08/10 09:12:31;;;;;;;6.93;2.35;;;;;;;;;;5071656;28;20028;-61
2023/08/10 09:15:03;;;;;;;3.97;2.25;;;;;;;;;;5073732;28;20040;-60
2023/08/10 09:17:29;;;;;;;6.57;2.63;;;;;;;;;;5071173;28;20098;-60
2023/08/10 09:19:54;;;;;;;5.72;2.33;;;;;;;;;;5073382;28;20098;-60
2023/08/10 09:22:39;;;;;;;5.00;2.67;;;;;;;;;;5071770;28;20036;-61
2023/08/10 09:25:06;;;;;;;7.25;2.55;;;;;;;;;;5072513;28;20028;-60
2023/08/10 09:27:31;;;;;;;4.82;2.78;;;;;;;;;;5071621;28;20086;-61
2023/08/10 09:29:58;;;;;;;3.65;2.50;;;;;;;;;;5073440;28;20020;-60
2023/08/10 09:32:23;;;;;;;7.65;3.65;;;;;;;;;;5071037;28;20036;-60
2023/08/10 09:34:48;;;;;;;5.33;3.60;;;;;;;;;;5073255;28;20029;-60
2023/08/10 09:37:13;;;;;;;5.97;2.40;;;;;;;;;;5070696;28;20481;-60
2023/08/10 09:39:38;;;;;;;8.53;2.67;;;;;;;;;;5072274;28;20024;-61
2023/08/10 09:42:04;;;;;;;3.13;2.60;;;;;;;;;;5069581;28;20045;-60
2023/08/10 09:44:45;;;;;;;4.87;2.93;;;;;;;;;;5072596;28;20430;-59
2023/08/10 09:47:11;;;;;;;6.68;2.88;;;;;;;;;;5069130;28;20451;-60
2023/08/10 09:49:36;;;;;;;5.15;2.17;;;;;;;;;;5073006;28;20525;-60
2023/08/10 09:52:01;;;;;;;4.43;3.67;;;;;;;;;;5061512;28;20061;-60
2023/08/10 09:54:27;;;;;;;9.07;3.70;;;;;;;;;;5072017;28;20107;-60
2023/08/10 09:56:53;;;;;;;13.50;3.55;;;;;;;;;;5071364;28;20455;-60
2023/08/10 09:59:19;;;;;;;5.53;2.55;;;;;;;;;;5072427;28;20383;-60
2023/08/10 10:01:44;;;;;;;6.95;2.17;;;;;;;;;;5078620;28;20511;-60
2023/08/10 10:04:10;;;;;;;4.57;1.83;;;;;;;;;;5083119;28;20046;-60
2023/08/10 10:06:35;;;;;;;3.10;2.25;;;;;;;;;;5088953;28;20037;-60
2023/08/10 10:09:01;;;;;;;6.53;2.42;;;;;;;;;;5072094;28;20016;-59
2023/08/10 10:11:28;;;;;;;5.75;2.22;;;;;;;;;;5070427;28;20033;-60
2023/08/10 10:13:53;;;;;;;7.70;2.15;;;;;;;;;;5072432;28;20460;-59
2023/08/10 10:16:18;;;;;;;5.90;2.95;;;;;;;;;;5069387;28;20039;-60
2023/08/10 10:18:44;;;;;;;6.35;3.25;;;;;;;;;;5072008;28;20097;-60
2023/08/10 10:21:09;;;;;;;8.33;2.07;;;;;;;;;;5071418;28;20669;-60
2023/08/10 10:23:39;;;;;;;4.17;1.93;;;;;;;;;;5072466;28;20035;-61
2023/08/10 10:26:08;;;;;;;6.65;2.45;;;;;;;;;;5070845;28;20451;-60
2023/08/10 10:28:33;;;;;;;3.00;2.10;;;;;;;;;;5071709;28;20021;-60
2023/08/10 10:30:58;;;;;;;5.53;1.92;;;;;;;;;;5070940;28;20341;-61
2023/08/10 10:33:24;;;;;;;8.00;2.78;;;;;;;;;;5071449;28;20048;-61
2023/08/10 10:36:09;;;;;;;3.70;2.53;;;;;;;;;;5069138;28;20051;-61
2023/08/10 10:38:36;;;;;;;10.50;2.33;;;;;;;;;;5052467;28;20103;-61
2023/08/10 10:41:15;;;;;;;2.92;2.00;;;;;;;;;;5057247;28;20487;-61
2023/08/10 10:43:40;;;;;;;4.95;2.70;;;;;;;;;;5092292;28;20506;-61
2023/08/10 10:46:05;;;;;;;9.37;2.83;;;;;;;;;;5086127;28;20037;-61
2023/08/10 10:48:34;;;;;;;5.18;2.30;;;;;;;;;;5071316;28;20084;-62
2023/08/10 10:51:04;;;;;;;6.55;2.40;;;;;;;;;;5070603;28;20037;-61
2023/08/10 10:53:29;;;;;;;3.88;1.98;;;;;;;;;;5069748;28;20024;-62
2023/08/10 10:55:54;;;;;;;5.90;2.85;;;;;;;;;;5070656;28;20034;-62
2023/08/10 10:58:20;;;;;;;3.28;2.42;;;;;;;;;;5071782;28;20048;-62
2023/08/10 11:00:45;;;;;;;3.92;2.30;;;;;;;;;;5069830;28;20020;-61
2023/08/10 11:03:11;;;;;;;3.33;2.78;;;;;;;;;;5071124;28;20017;-62
2023/08/10 11:05:37;;;;;;;9.15;2.92;;;;;;;;;;5071421;28;20032;-62
2023/08/10 11:08:08;;;;;;;7.05;2.00;;;;;;;;;;5070092;28;20489;-62
2023/08/10 11:10:37;;;;;;;2.88;2.15;;;;;;;;;;5071645;28;20392;-62
2023/08/10 11:13:06;;;;;;;3.33;1.98;;;;;;;;;;5069854;28;20059;-62
2023/08/10 11:15:31;;;;;;;7.93;2.45;;;;;;;;;;5070378;28;20040;-62
2023/08/10 11:17:57;;;;;;;7.93;3.43;;;;;;;;;;5089293;28;20063;-62
2023/08/10 11:20:23;;;;;;;8.65;2.42;;;;;;;;;;5091284;28;21011;-62
2023/08/10 11:22:48;;;;;;;3.00;2.40;;;;;;;;;;5071774;28;20032;-62
2023/08/10 11:25:14;;;;;;;16.35;3.13;;;;;;;;;;5070837;28;20024;-62
2023/08/10 11:27:41;;;;;;;9.98;3.08;;;;;;;;;;5069483;28;20043;-62
2023/08/10 11:30:09;;;;;;;5.30;3.22;;;;;;;;;;5071082;28;20353;-62
2023/08/10 11:32:36;;;;;;;2.85;2.42;;;;;;;;;;5069829;28;20055;-62
2023/08/10 11:35:03;;;;;;;10.02;2.80;;;;;;;;;;5071229;28;20027;-61
2023/08/10 11:37:33;;;;;;;3.85;2.13;;;;;;;;;;5069254;28;20039;-62
2023/08/10 11:40:24;;;;;;;7.78;2.70;;;;;;;;;;5071482;28;20103;-62
2023/08/10 11:43:07;;;;;;;4.80;2.95;;;;;;;;;;5066784;28;20043;-62
2023/08/10 11:45:33;;;;;;;5.75;2.97;;;;;;;;;;5070364;28;20032;-62
2023/08/10 11:47:58;;;;;;;4.88;3.63;;;;;;;;;;5069669;28;20035;-61
2023/08/10 11:50:24;;;;;;;4.45;2.97;;;;;;;;;;5070649;28;20113;-62
2023/08/10 11:52:50;;;;;;;6.43;3.47;;;;;;;;;;5069151;28;20038;-62
2023/08/10 11:55:16;;;;;;;10.37;2.87;;;;;;;;;;5070545;28;20449;-62
2023/08/10 11:57:42;;;;;;;10.90;3.85;;;;;;;;;;5067706;28;20491;-61
2023/08/10 12:00:41;;;;;;;3.40;2.72;;;;;;;;;;5065670;28;20107;-62
2023/08/10 12:03:15;;;;;;;8.98;3.17;;;;;;;;;;5069171;28;20043;-62
2023/08/10 12:05:44;;;;;;;8.25;4.20;;;;;;;;;;5069562;28;20599;-61
2023/08/10 12:08:14;;;;;;;6.43;3.47;;;;;;;;;;5090538;28;20008;-62
2023/08/10 12:10:40;;;;;;;6.70;3.08;;;;;;;;;;5088792;28;20087;-62
2023/08/10 12:13:07;;;;;;;14.82;2.88;;;;;;;;;;5070294;28;20016;-62
2023/08/10 12:15:33;;;;;;;8.48;3.70;;;;;;;;;;5069341;28;20032;-62
2023/08/10 12:17:59;;;;;;;5.82;3.65;;;;;;;;;;5068998;28;20454;-62
2023/08/10 12:20:25;;;;;;;3.60;2.72;;;;;;;;;;5069740;28;20059;-62
2023/08/10 12:22:50;;;;;;;13.00;2.92;;;;;;;;;;5068658;28;20032;-61
2023/08/10 12:25:15;;;;;;;8.90;3.88;;;;;;;;;;5062937;28;20024;-61
2023/08/10 12:27:40;;;;;;;4.63;3.73;;;;;;;;;;5074344;28;20039;-61
2023/08/10 12:30:08;;;;;;;3.97;2.10;;;;;;;;;;5076547;28;20012;-61
2023/08/10 12:32:33;;;;;;;15.90;4.47;;;;;;;;;;5088610;28;20064;-61
2023/08/10 12:34:58;;;;;;;11.13;4.47;;;;;;;;;;5077608;28;20040;-61
2023/08/10 12:37:25;;;;;;;3.90;3.15;;;;;;;;;;5060575;28;20862;-61
2023/08/10 12:39:50;;;;;;;7.10;3.17;;;;;;;;;;5071280;28;20016;-61
2023/08/10 12:42:15;;;;;;;5.93;3.30;;;;;;;;;;5075335;28;20124;-61
2023/08/10 12:44:40;;;;;;;4.75;2.53;;;;;;;;;;5076638;28;20031;-61
2023/08/10 12:47:05;;;;;;;4.63;3.87;;;;;;;;;;5075356;28;20400;-61
2023/08/10 12:49:30;;;;;;;4.63;2.73;;;;;;;;;;5076747;28;20095;-61
2023/08/10 12:51:55;;;;;;;7.83;2.80;;;;;;;;;;5073691;28;20097;-61
2023/08/10 12:54:21;;;;;;;4.87;2.60;;;;;;;;;;5076471;28;20031;-61
2023/08/10 12:56:46;;;;;;;9.37;3.00;;;;;;;;;;5075705;28;20607;-61
2023/08/10 12:59:11;;;;;;;6.53;3.25;;;;;;;;;;5076544;28;20024;-62
2023/08/10 13:01:37;;;;;;;4.80;2.67;;;;;;;;;;5075517;28;20107;-61
2023/08/10 13:04:02;;;;;;;8.02;3.40;;;;;;;;;;5076920;28;20028;-61
2023/08/10 13:06:27;;;;;;;4.47;2.70;;;;;;;;;;5074199;28;20510;-61
2023/08/10 13:08:55;;;;;;;2.92;2.53;;;;;;;;;;5076723;28;20024;-61
2023/08/10 13:11:21;;;;;;;4.80;2.22;;;;;;;;;;5074845;28;20033;-61
2023/08/10 13:13:46;;;;;;;7.70;2.70;;;;;;;;;;5075969;28;20016;-62
2023/08/10 13:16:11;;;;;;;2.67;2.15;;;;;;;;;;5074686;28;20033;-62
2023/08/10 13:18:36;;;;;;;6.47;2.72;;;;;;;;;;5076496;28;20067;-62
2023/08/10 13:21:01;;;;;;;9.45;3.28;;;;;;;;;;5074818;28;20036;-62
2023/08/10 13:23:26;;;;;;;8.37;2.47;;;;;;;;;;5076603;28;20009;-62
2023/08/10 13:25:52;;;;;;;2.63;2.43;;;;;;;;;;5074689;28;20092;-62
2023/08/10 13:28:17;;;;;;;8.35;2.80;;;;;;;;;;5076142;28;20066;-62
2023/08/10 13:30:42;;;;;;;2.92;2.53;;;;;;;;;;5075509;28;20103;-62
2023/08/10 13:33:08;;;;;;;3.70;2.30;;;;;;;;;;5076822;28;20017;-62
2023/08/10 13:35:33;;;;;;;3.03;2.47;;;;;;;;;;5076785;28;20017;-62
2023/08/10 13:37:58;;;;;;;4.90;2.90;;;;;;;;;;5073292;28;20040;-62
2023/08/10 13:40:23;;;;;;;7.67;2.67;;;;;;;;;;5073105;28;20036;-63
2023/08/10 13:42:48;;;;;;;4.00;2.77;;;;;;;;;;5071371;28;20817;-62
2023/08/10 13:45:14;;;;;;;2.47;1.70;;;;;;;;;;5072499;28;20031;-62
2023/08/10 13:47:39;;;;;;;3.13;2.60;;;;;;;;;;5072058;28;20546;-61
2023/08/10 13:50:06;;;;;;;4.63;2.58;;;;;;;;;;5073327;28;20021;-61
2023/08/10 13:52:31;;;;;;;3.95;3.05;;;;;;;;;;5071217;28;20052;-61
2023/08/10 13:54:58;;;;;;;5.22;2.60;;;;;;;;;;5067071;28;20063;-61
2023/08/10 13:57:23;;;;;;;6.20;2.90;;;;;;;;;;5051507;28;20059;-62
2023/08/10 13:59:48;;;;;;;5.90;2.90;;;;;;;;;;5064243;28;20400;-62
2023/08/10 14:02:13;;;;;;;6.90;3.05;;;;;;;;;;5071463;28;20050;-61
2023/08/10 14:04:38;;;;;;;3.00;2.53;;;;;;;;;;5072873;28;20387;-61
2023/08/10 14:07:04;;;;;;;5.22;2.20;;;;;;;;;;5056250;28;20040;-61
2023/08/10 14:09:29;;;;;;;8.27;3.40;;;;;;;;;;5053003;28;20017;-61
2023/08/10 14:11:54;;;;;;;2.47;2.28;;;;;;;;;;5054876;28;20119;-61
2023/08/10 14:14:20;;;;;;;5.60;2.35;;;;;;;;;;5071993;28;20447;-61
2023/08/10 14:16:46;;;;;;;3.45;2.60;;;;;;;;;;5080411;28;20036;-61
2023/08/10 14:19:11;;;;;;;2.22;1.95;;;;;;;;;;5092867;28;20477;-61
2023/08/10 14:21:37;;;;;;;2.45;2.28;;;;;;;;;;5082847;28;20395;-62
2023/08/10 14:24:02;;;;;;;7.75;4.63;;;;;;;;;;5071463;28;20368;-61
2023/08/10 14:26:30;;;;;;;5.88;2.58;;;;;;;;;;5070784;28;20033;-61
2023/08/10 14:28:55;;;;;;;;;;;;;;;;;;5072574;28;20031;-61
2023/08/10 14:31:20;;;;;;;4.45;2.63;;;;;;;;;;5070560;28;19908;-61
2023/08/10 14:33:45;;;;;;;8.83;3.07;;;;;;;;;;5072941;28;20027;-61